サルタ の空港の天気 - METARとTAF

サルタ空港 ( SASA / SLA ) - アルゼンチン サルタ州、Salta
飛行場実況気象(Metar)
観測時間07/16 03:00 ART (07/16 06:00 UTC)
風向・風速南西 1m/s
視程10km以上
天気現象
なし
気温7℃
湿度87%
気圧1019hPa
METARSASA 160600Z 23002KT CAVOK 07/05 Q1019
過去の天気等 Google飛行場航空写真 Wunderground天気予報

過去48時間のMETAR

飛行場予報(TAF)
発表時間: 7/16 02:00 ART (7/16 05:00 UTC)
予報対象時間: 16日3時 ART ~ 17日3時 ART
風向・風速不定 2m/s
視程10km以上
なし
16日7時 ART ~ 16日9時 ART に徐々に
風向・風速東 5m/s
視程10km以上
全天の4割程度の雲 雲底高度 910m
16日19時 ART ~ 16日21時 ART に徐々に
風向・風速南東 3m/s
視程10km以上
全天の8割程度の雲 雲底高度 300m
TAF SASA 160500Z 1606/1706 VRB03KT CAVOK TX21/1618Z TN08/1610Z
BECMG 1610/1612 09010KT 9999 SCT030
BECMG 1622/1700 14005KT 9999 BKN010